Pettus, Arkansas
Current Conditions -  °F | °C
As of 12:58 AM on Thursday 23 Oct 2014 (Local Time) from KLRF Reporting Station
Clear Clear  
Wind Chill: 44°   Ceiling: Unl
Heat Index: 44°   Visibility: 10mi
Dew Point: 42°   Wind: 0mph
Humidity: 91%   Direction: NA
Pressure: 30.19"   Gusts: NA
Location:  34.7557°N, 91.9476°W
Report Text: KLRF 230558Z AUTO 00000KT 10SM CLR 07/06 A3019 RMK AO2 SLP226 T00680055 10145 20065 402180065 57008 $
Loading
Personal Weather Stations






























Interactive Weather Map New forecast layout! Learn more

10-Day Weather Forecast

Advertisements
Track Severe Weather on mobile